Terminal Aerodrome Forecast
Issued by NWS

Home | Current Version | Previous Version | Text Only | Print | Product List | Glossary On
Versions: 1 2 3 4 5 6 7 8 9 10 11 12 13 14 15 16 17 18 19 20 21 22 23 24 25 26 27 28 29 30 31 32 33 34 35 36 37 38 39 40 41 42 43 44 45 46 47 48 49
579
FTUS43 KDDC 150520
TAFGCK
TAF
KGCK 150520Z 1506/1606 16008KT P6SM BKN150
     FM152100 17017G25KT P6SM VCTS SCT045CB
     FM160300 15012KT P6SM BKN045=

USA.gov is the U.S. government's official web portal to all federal, state and local government web resources and services.